createdAt,value
2018-07-26T00:01:34.471Z,90.10
2018-07-26T00:04:02.928Z,90.10
2018-07-26T00:06:31.364Z,90.00
2018-07-26T00:08:59.776Z,90.00
2018-07-26T00:11:28.221Z,90.30
2018-07-26T00:13:56.654Z,90.60
2018-07-26T00:16:25.069Z,90.30
2018-07-26T00:18:53.517Z,90.50
2018-07-26T00:21:21.943Z,90.40
2018-07-26T00:23:50.382Z,90.30
2018-07-26T00:26:18.833Z,90.00
2018-07-26T00:28:47.229Z,90.30
2018-07-26T00:31:15.650Z,90.50
2018-07-26T00:33:44.115Z,90.60
2018-07-26T00:36:12.513Z,90.70
2018-07-26T00:38:40.948Z,90.70
2018-07-26T00:41:09.535Z,90.80
2018-07-26T00:43:37.948Z,90.80
2018-07-26T00:46:06.398Z,90.90
2018-07-26T00:48:34.852Z,91.00
2018-07-26T00:51:03.264Z,91.10
2018-07-26T00:53:31.677Z,91.10
2018-07-26T00:56:00.119Z,91.10
2018-07-26T00:58:28.520Z,91.20
2018-07-26T01:00:56.954Z,91.20
2018-07-26T01:03:25.402Z,91.40
2018-07-26T01:05:53.826Z,91.30
2018-07-26T01:08:22.238Z,91.60
2018-07-26T01:10:50.673Z,91.80
2018-07-26T01:13:19.125Z,91.60
2018-07-26T01:15:47.544Z,91.70
2018-07-26T01:18:15.997Z,91.50
2018-07-26T01:20:44.404Z,91.80
2018-07-26T01:23:12.832Z,91.90
2018-07-26T01:25:41.311Z,92.00
2018-07-26T01:28:09.733Z,92.00
2018-07-26T01:30:38.138Z,92.10
2018-07-26T01:33:06.925Z,92.10
2018-07-26T01:35:35.429Z,92.20
2018-07-26T01:38:03.876Z,92.70
2018-07-26T01:40:32.338Z,92.60
2018-07-26T01:43:12.057Z,92.80
2018-07-26T01:45:40.526Z,92.70
2018-07-26T01:48:08.935Z,92.60
2018-07-26T01:50:37.359Z,92.80
2018-07-26T01:53:05.834Z,92.60
2018-07-26T01:55:34.267Z,92.80
2018-07-26T02:00:30.853Z,92.80
2018-07-26T02:02:59.278Z,93.10
2018-07-26T02:05:27.703Z,92.80
2018-07-26T02:07:56.153Z,92.70
2018-07-26T02:10:24.596Z,92.80
2018-07-26T02:12:53.049Z,93.00
2018-07-26T02:15:21.549Z,92.70
2018-07-26T02:17:49.960Z,92.90
2018-07-26T02:20:18.386Z,93.10
2018-07-26T02:22:46.838Z,93.30
2018-07-26T02:25:15.290Z,93.30
2018-07-26T02:27:43.689Z,93.40
2018-07-26T02:30:12.135Z,93.40
2018-07-26T02:32:40.565Z,93.40
2018-07-26T02:35:09.002Z,93.50
2018-07-26T02:37:37.423Z,93.60
2018-07-26T02:40:06.285Z,93.40
2018-07-26T02:42:34.725Z,93.50
2018-07-26T02:45:03.207Z,93.80
2018-07-26T02:47:31.628Z,93.60
2018-07-26T02:50:00.014Z,93.70
2018-07-26T02:52:28.448Z,93.60
2018-07-26T02:54:56.853Z,93.80
2018-07-26T02:57:25.285Z,93.80
2018-07-26T02:59:53.731Z,93.90
2018-07-26T03:02:22.144Z,94.20
2018-07-26T03:04:50.562Z,93.80
2018-07-26T03:07:19.374Z,93.60
2018-07-26T03:09:47.749Z,93.50
2018-07-26T03:12:16.187Z,93.50
2018-07-26T03:14:45.163Z,93.30
2018-07-26T03:17:15.261Z,93.30
2018-07-26T03:19:44.781Z,93.40
2018-07-26T03:22:13.219Z,93.80
2018-07-26T03:24:41.654Z,93.60
2018-07-26T03:27:10.090Z,93.50
2018-07-26T03:29:38.497Z,93.60
2018-07-26T03:32:07.565Z,93.50
2018-07-26T03:34:35.989Z,93.50
2018-07-26T03:37:04.510Z,93.70
2018-07-26T03:39:32.938Z,93.60
2018-07-26T03:44:29.541Z,93.70
2018-07-26T03:46:58.672Z,93.80
2018-07-26T03:49:27.122Z,93.80
2018-07-26T03:51:55.594Z,93.80
2018-07-26T03:54:24.015Z,93.90
2018-07-26T03:56:52.464Z,93.90
2018-07-26T03:59:20.910Z,94.00
2018-07-26T04:01:49.327Z,94.10
2018-07-26T04:04:17.773Z,94.20
2018-07-26T04:06:46.194Z,94.20
2018-07-26T04:09:15.496Z,94.50
2018-07-26T04:11:45.034Z,94.60
2018-07-26T04:14:13.467Z,94.70
2018-07-26T04:16:41.928Z,94.70
2018-07-26T04:19:11.287Z,94.70
2018-07-26T04:21:40.290Z,94.70
2018-07-26T04:26:37.363Z,94.70
2018-07-26T04:29:06.104Z,95.00
2018-07-26T04:31:34.701Z,95.10
2018-07-26T04:34:03.141Z,95.20
2018-07-26T04:36:31.579Z,95.60
2018-07-26T04:39:00.001Z,94.70
2018-07-26T04:41:29.466Z,94.70
2018-07-26T04:43:57.898Z,94.70
2018-07-26T04:46:26.297Z,94.80
2018-07-26T04:48:55.030Z,94.80
2018-07-26T04:51:23.417Z,94.80
2018-07-26T04:53:51.882Z,95.10
2018-07-26T04:56:20.309Z,95.50
2018-07-26T04:58:48.733Z,95.10
2018-07-26T05:01:17.282Z,95.20
2018-07-26T05:03:45.726Z,95.30
2018-07-26T05:06:14.170Z,95.50
2018-07-26T05:08:42.626Z,95.10
2018-07-26T05:11:11.075Z,95.10
2018-07-26T05:13:39.514Z,94.90
2018-07-26T05:18:36.118Z,94.70
2018-07-26T05:21:04.509Z,94.80
2018-07-26T05:23:32.940Z,94.70
2018-07-26T05:26:01.378Z,94.60
2018-07-26T05:28:29.772Z,94.60
2018-07-26T05:30:58.194Z,94.80
2018-07-26T05:33:26.628Z,94.70
2018-07-26T05:35:55.752Z,94.20
2018-07-26T05:38:24.408Z,94.30
2018-07-26T05:40:52.858Z,94.00
2018-07-26T05:43:21.847Z,94.20
2018-07-26T05:45:50.290Z,93.80
2018-07-26T05:48:18.745Z,93.60
2018-07-26T05:50:47.224Z,93.10
2018-07-26T05:53:15.719Z,93.30
2018-07-26T05:55:44.104Z,92.30
2018-07-26T05:58:12.522Z,92.20
2018-07-26T06:00:40.951Z,91.50
2018-07-26T06:03:09.396Z,91.50
2018-07-26T06:05:37.848Z,91.50
2018-07-26T06:08:06.290Z,90.90
2018-07-26T06:10:34.721Z,90.90
2018-07-26T06:13:03.151Z,90.50
2018-07-26T06:15:31.596Z,90.70
2018-07-26T06:18:00.035Z,90.90
2018-07-26T06:20:28.492Z,90.30
2018-07-26T06:22:56.906Z,90.00
2018-07-26T06:25:25.362Z,90.00
2018-07-26T06:27:53.807Z,89.90
2018-07-26T06:30:22.210Z,89.60
2018-07-26T06:32:50.639Z,89.50
2018-07-26T06:35:19.052Z,88.20
2018-07-26T06:37:47.464Z,87.60
2018-07-26T06:40:15.912Z,88.40
2018-07-26T06:42:44.359Z,88.30
2018-07-26T06:45:12.788Z,87.70
2018-07-26T06:47:41.290Z,87.50
2018-07-26T06:50:11.584Z,86.80
2018-07-26T06:52:40.167Z,85.50
2018-07-26T06:55:08.778Z,85.90
2018-07-26T06:57:37.205Z,86.90
2018-07-26T07:00:07.485Z,87.00
2018-07-26T07:02:35.918Z,86.20
2018-07-26T07:05:04.533Z,87.20
2018-07-26T07:07:32.926Z,87.30
2018-07-26T07:10:01.383Z,85.70
2018-07-26T07:12:29.806Z,87.70
2018-07-26T07:14:58.533Z,86.80
2018-07-26T07:17:26.953Z,86.50
2018-07-26T07:19:55.360Z,85.50
2018-07-26T07:22:23.793Z,84.30
2018-07-26T07:24:52.243Z,84.10
2018-07-26T07:27:20.662Z,82.20
2018-07-26T07:29:49.077Z,82.10
2018-07-26T07:32:17.562Z,81.10
2018-07-26T07:34:45.986Z,80.30
2018-07-26T07:37:14.400Z,78.70
2018-07-26T07:39:42.844Z,76.90
2018-07-26T07:42:11.265Z,74.60
2018-07-26T07:44:39.664Z,72.50
2018-07-26T07:47:08.133Z,72.30
2018-07-26T07:49:36.552Z,72.60
2018-07-26T07:52:07.666Z,68.20
2018-07-26T07:54:36.270Z,62.30
2018-07-26T07:57:04.943Z,65.70
2018-07-26T07:59:33.453Z,59.20
2018-07-26T08:02:01.934Z,57.00
2018-07-26T08:04:30.362Z,56.20
2018-07-26T08:06:58.796Z,52.80
2018-07-26T08:09:27.232Z,50.60
2018-07-26T08:11:56.255Z,46.20
2018-07-26T08:14:24.686Z,44.10
2018-07-26T08:16:53.142Z,42.20
2018-07-26T08:19:21.564Z,41.10
2018-07-26T08:21:50.006Z,41.30
2018-07-26T08:24:20.388Z,39.10
2018-07-26T08:26:48.818Z,36.50
2018-07-26T08:29:17.234Z,37.80
2018-07-26T08:31:45.746Z,37.80
2018-07-26T08:34:14.189Z,36.60
2018-07-26T08:36:42.666Z,37.30
2018-07-26T08:39:12.639Z,36.40
2018-07-26T08:41:41.319Z,35.70
2018-07-26T08:44:09.804Z,35.30
2018-07-26T08:46:38.255Z,36.70
2018-07-26T08:49:07.071Z,34.90
2018-07-26T08:51:35.503Z,36.90
2018-07-26T08:54:03.953Z,36.90
2018-07-26T08:56:32.364Z,35.80
2018-07-26T08:59:00.748Z,34.30
2018-07-26T09:01:29.189Z,34.40
2018-07-26T09:03:57.628Z,32.70
2018-07-26T09:06:26.051Z,35.20
2018-07-26T09:08:54.500Z,34.10
2018-07-26T09:11:22.916Z,34.70
2018-07-26T09:13:51.361Z,33.00
2018-07-26T09:16:19.913Z,33.80
2018-07-26T09:18:48.324Z,33.10
2018-07-26T09:21:16.832Z,32.80
2018-07-26T09:23:45.284Z,34.10
2018-07-26T09:26:13.727Z,34.70
2018-07-26T09:28:42.109Z,32.40
2018-07-26T09:31:10.558Z,34.60
2018-07-26T09:33:39.685Z,35.00
2018-07-26T09:36:08.901Z,35.20
2018-07-26T09:38:37.351Z,39.00
2018-07-26T09:41:05.832Z,35.20
2018-07-26T09:43:34.246Z,34.70
2018-07-26T09:46:02.691Z,37.30
2018-07-26T09:48:31.118Z,36.00
2018-07-26T09:50:59.568Z,36.50
2018-07-26T09:53:28.011Z,37.00
2018-07-26T09:55:56.444Z,35.00
2018-07-26T09:58:24.858Z,37.80
2018-07-26T10:00:58.672Z,35.70
2018-07-26T10:03:27.083Z,36.60
2018-07-26T10:05:55.650Z,35.20
2018-07-26T10:08:24.129Z,37.40
2018-07-26T10:10:52.534Z,35.50
2018-07-26T10:13:20.970Z,36.10
2018-07-26T10:18:17.530Z,36.70
2018-07-26T10:20:46.015Z,31.30
2018-07-26T10:23:14.478Z,35.40
2018-07-26T10:25:42.961Z,36.20
2018-07-26T10:28:11.418Z,37.10
2018-07-26T10:30:39.886Z,37.00
2018-07-26T10:33:08.335Z,38.30
2018-07-26T10:35:36.785Z,35.60
2018-07-26T10:38:05.301Z,38.40
2018-07-26T10:40:33.750Z,37.50
2018-07-26T10:43:02.224Z,34.90
2018-07-26T10:45:30.680Z,36.40
2018-07-26T10:47:59.155Z,38.20
2018-07-26T10:50:27.621Z,37.40
2018-07-26T10:52:56.753Z,37.80
2018-07-26T10:55:25.177Z,36.90
2018-07-26T10:57:53.770Z,37.10
2018-07-26T11:00:22.309Z,35.90
2018-07-26T11:02:50.737Z,37.30
2018-07-26T11:05:19.252Z,37.80
2018-07-26T11:07:47.727Z,38.30
2018-07-26T11:10:16.124Z,34.30
2018-07-26T11:12:44.641Z,36.90
2018-07-26T11:15:23.267Z,39.10
2018-07-26T11:17:51.728Z,34.20
2018-07-26T11:20:20.298Z,36.80
2018-07-26T11:22:48.772Z,35.10
2018-07-26T11:25:17.211Z,35.70
2018-07-26T11:27:45.639Z,39.50
2018-07-26T11:30:14.210Z,35.30
2018-07-26T11:32:42.687Z,37.60
2018-07-26T11:35:12.009Z,37.30
2018-07-26T11:37:40.487Z,35.80
2018-07-26T11:40:08.966Z,36.80
2018-07-26T11:42:37.389Z,35.90
2018-07-26T11:45:07.178Z,37.60
2018-07-26T11:47:35.859Z,37.50
2018-07-26T11:50:05.347Z,38.90
2018-07-26T11:52:33.923Z,37.70
2018-07-26T11:55:02.401Z,39.00
2018-07-26T11:57:30.877Z,37.80
2018-07-26T11:59:59.460Z,38.30
2018-07-26T12:02:28.760Z,38.50
2018-07-26T12:04:57.162Z,38.20
2018-07-26T12:07:25.612Z,38.60
2018-07-26T12:09:54.039Z,37.30
2018-07-26T12:12:22.507Z,39.30
2018-07-26T12:14:50.945Z,38.80
2018-07-26T12:17:19.372Z,38.40
2018-07-26T12:19:47.877Z,38.40
2018-07-26T12:22:16.325Z,37.40
2018-07-26T12:27:12.946Z,38.00
2018-07-26T12:29:41.391Z,39.90
2018-07-26T12:32:09.863Z,37.80
2018-07-26T12:34:38.347Z,35.40
2018-07-26T12:37:06.879Z,37.40
2018-07-26T12:39:35.330Z,36.90
2018-07-26T12:42:04.066Z,35.70
2018-07-26T12:44:32.505Z,35.90
2018-07-26T12:47:00.960Z,36.90
2018-07-26T12:49:29.476Z,36.00
2018-07-26T12:51:58.236Z,36.00
2018-07-26T12:54:27.062Z,37.80
2018-07-26T12:56:55.476Z,36.90
2018-07-26T12:59:23.938Z,37.60
2018-07-26T13:01:52.435Z,37.30
2018-07-26T13:04:20.942Z,36.20
2018-07-26T13:06:49.402Z,36.30
2018-07-26T13:09:17.824Z,36.10
2018-07-26T13:11:46.336Z,36.50
2018-07-26T13:14:14.819Z,34.10
2018-07-26T13:16:45.397Z,34.70
2018-07-26T13:19:13.906Z,32.70
2018-07-26T13:21:42.458Z,33.10
2018-07-26T13:24:10.889Z,33.70
2018-07-26T13:26:39.325Z,35.00
2018-07-26T13:29:07.779Z,34.30
2018-07-26T13:31:36.326Z,34.30
2018-07-26T13:34:04.815Z,34.40
2018-07-26T13:36:33.319Z,34.40
2018-07-26T13:39:01.836Z,35.60
2018-07-26T13:41:30.340Z,33.20
2018-07-26T13:43:58.779Z,31.20
2018-07-26T13:46:27.243Z,32.00
2018-07-26T13:48:55.766Z,34.20
2018-07-26T13:51:24.195Z,33.00
2018-07-26T13:53:52.630Z,33.10
2018-07-26T13:56:21.082Z,32.40
2018-07-26T13:58:49.522Z,32.30
2018-07-26T14:01:18.166Z,32.30
2018-07-26T14:03:46.654Z,34.00
2018-07-26T14:06:15.122Z,33.20
2018-07-26T14:08:43.550Z,34.20
2018-07-26T14:11:11.995Z,33.80
2018-07-26T14:13:40.412Z,34.80
2018-07-26T14:16:08.935Z,34.70
2018-07-26T14:18:37.340Z,35.50
2018-07-26T14:21:05.787Z,34.10
2018-07-26T14:23:38.274Z,33.60
2018-07-26T14:26:08.348Z,34.50
2018-07-26T14:28:36.810Z,35.20
2018-07-26T14:31:05.567Z,36.00
2018-07-26T14:33:34.040Z,35.60
2018-07-26T14:36:02.495Z,33.60
2018-07-26T14:38:30.958Z,35.40
2018-07-26T14:40:59.503Z,37.30
2018-07-26T14:43:27.925Z,36.50
2018-07-26T14:45:56.408Z,35.80
2018-07-26T14:50:53.005Z,36.00
2018-07-26T14:53:21.510Z,35.00
2018-07-26T14:55:49.936Z,36.20
2018-07-26T14:58:18.507Z,36.40
2018-07-26T15:00:47.003Z,37.10
2018-07-26T15:03:15.430Z,38.00
2018-07-26T15:05:43.879Z,35.40
2018-07-26T15:08:12.346Z,37.10
2018-07-26T15:10:40.862Z,36.50
2018-07-26T15:13:09.343Z,38.20
2018-07-26T15:15:37.800Z,37.70
2018-07-26T15:18:06.386Z,37.30
2018-07-26T15:20:34.874Z,38.60
2018-07-26T15:23:03.399Z,37.10
2018-07-26T15:25:31.885Z,36.40
2018-07-26T15:28:00.486Z,36.60
2018-07-26T15:30:28.978Z,35.80
2018-07-26T15:32:57.521Z,37.60
2018-07-26T15:35:25.909Z,36.10
2018-07-26T15:37:54.341Z,37.00
2018-07-26T15:40:22.773Z,37.10
2018-07-26T15:42:51.335Z,38.60
2018-07-26T15:45:19.798Z,36.50
2018-07-26T15:47:48.228Z,37.80
2018-07-26T15:52:44.804Z,39.20
2018-07-26T15:55:13.249Z,38.90
2018-07-26T15:57:41.672Z,38.50
2018-07-26T16:00:11.567Z,38.60
2018-07-26T16:02:40.130Z,38.40
2018-07-26T16:05:08.867Z,39.40
2018-07-26T16:07:37.922Z,41.10
2018-07-26T16:10:06.997Z,39.90
2018-07-26T16:12:35.422Z,39.90
2018-07-26T16:15:05.086Z,40.80
2018-07-26T16:17:33.571Z,41.10
2018-07-26T16:20:01.926Z,40.70
2018-07-26T16:22:30.398Z,41.50
2018-07-26T16:24:58.822Z,41.40
2018-07-26T16:27:27.235Z,41.30
2018-07-26T16:29:55.672Z,42.40
2018-07-26T16:32:24.108Z,41.20
2018-07-26T16:34:52.559Z,42.70
2018-07-26T16:37:21.000Z,42.70
2018-07-26T16:39:49.418Z,42.30
2018-07-26T16:42:17.891Z,42.80
2018-07-26T16:44:46.326Z,42.30
2018-07-26T16:47:14.823Z,43.10
2018-07-26T16:49:43.261Z,42.20
2018-07-26T16:52:12.293Z,42.90
2018-07-26T16:54:40.731Z,43.30
2018-07-26T16:57:09.182Z,43.30
2018-07-26T16:59:37.628Z,42.80
2018-07-26T17:02:06.070Z,42.40
2018-07-26T17:04:34.512Z,42.50
2018-07-26T17:07:02.950Z,42.60
2018-07-26T17:09:31.409Z,42.60
2018-07-26T17:11:59.832Z,43.10
2018-07-26T17:14:28.285Z,42.90
2018-07-26T17:16:56.733Z,43.10
2018-07-26T17:19:25.182Z,43.20
2018-07-26T17:21:53.632Z,43.60
2018-07-26T17:24:22.071Z,43.80
2018-07-26T17:26:50.493Z,44.20
2018-07-26T17:29:18.993Z,44.10
2018-07-26T17:31:47.429Z,44.40
2018-07-26T17:34:15.892Z,44.50
2018-07-26T17:36:44.334Z,44.60
2018-07-26T17:39:13.125Z,44.90
2018-07-26T17:41:41.542Z,45.80
2018-07-26T17:44:09.981Z,45.00
2018-07-26T17:46:38.401Z,45.30
2018-07-26T17:49:06.841Z,45.90
2018-07-26T17:51:35.318Z,45.50
2018-07-26T17:54:03.738Z,45.70
2018-07-26T17:56:32.156Z,45.80
2018-07-26T17:59:00.647Z,46.30
2018-07-26T18:01:29.054Z,46.60
2018-07-26T18:03:57.514Z,46.70
2018-07-26T18:06:25.949Z,47.10
2018-07-26T18:08:54.498Z,46.70
2018-07-26T18:11:22.896Z,47.10
2018-07-26T18:13:51.357Z,47.40
2018-07-26T18:16:19.782Z,48.20
2018-07-26T18:18:48.196Z,48.00
2018-07-26T18:21:16.675Z,48.60
2018-07-26T18:23:45.118Z,47.90
2018-07-26T18:26:13.623Z,48.60
2018-07-26T18:28:42.165Z,48.60
2018-07-26T18:31:10.598Z,49.10
2018-07-26T18:33:39.101Z,48.80
2018-07-26T18:36:07.547Z,48.20
2018-07-26T18:38:35.953Z,49.20
2018-07-26T18:41:04.348Z,49.50
2018-07-26T18:43:32.949Z,49.50
2018-07-26T18:46:01.270Z,49.40
2018-07-26T18:48:29.738Z,50.90
2018-07-26T18:50:58.195Z,49.70
2018-07-26T18:53:26.636Z,50.30
2018-07-26T18:55:55.256Z,51.00
2018-07-26T18:58:23.713Z,50.20
2018-07-26T19:00:52.139Z,52.30
2018-07-26T19:03:20.579Z,53.40
2018-07-26T19:08:17.163Z,52.50
2018-07-26T19:10:45.590Z,52.10
2018-07-26T19:13:14.021Z,51.80
2018-07-26T19:15:44.538Z,52.90
2018-07-26T19:18:13.086Z,52.80
2018-07-26T19:20:41.550Z,53.10
2018-07-26T19:23:09.964Z,53.40
2018-07-26T19:25:38.406Z,53.90
2018-07-26T19:28:06.842Z,54.60
2018-07-26T19:30:35.360Z,53.80
2018-07-26T19:33:03.834Z,53.70
2018-07-26T19:35:32.294Z,54.10
2018-07-26T19:38:00.693Z,54.60
2018-07-26T19:40:29.136Z,55.80
2018-07-26T19:42:57.566Z,55.70
2018-07-26T19:45:25.995Z,55.80
2018-07-26T19:47:54.464Z,56.50
2018-07-26T19:50:22.943Z,56.40
2018-07-26T19:52:51.410Z,56.90
2018-07-26T19:55:19.906Z,56.60
2018-07-26T19:57:48.332Z,56.50
2018-07-26T20:00:16.744Z,56.60
2018-07-26T20:02:45.210Z,56.40
2018-07-26T20:05:13.645Z,57.20
2018-07-26T20:07:42.110Z,57.80
2018-07-26T20:10:12.546Z,57.80
2018-07-26T20:12:41.313Z,58.90
2018-07-26T20:17:37.914Z,60.60
2018-07-26T20:20:08.704Z,59.70
2018-07-26T20:22:37.199Z,59.20
2018-07-26T20:25:05.838Z,60.30
2018-07-26T20:27:34.554Z,60.40
2018-07-26T20:30:03.218Z,60.40
2018-07-26T20:32:31.660Z,61.50
2018-07-26T20:35:00.078Z,60.50
2018-07-26T20:37:28.548Z,61.20
2018-07-26T20:39:56.985Z,61.60
2018-07-26T20:42:26.199Z,61.70
2018-07-26T20:44:54.762Z,62.30
2018-07-26T20:49:51.524Z,62.80
2018-07-26T20:52:19.973Z,63.50
2018-07-26T20:54:48.409Z,64.20
2018-07-26T20:57:16.876Z,65.00
2018-07-26T20:59:45.507Z,64.70
2018-07-26T21:02:14.487Z,64.60
2018-07-26T21:04:42.862Z,65.10
2018-07-26T21:07:11.296Z,65.10
2018-07-26T21:09:39.709Z,66.00
2018-07-26T21:12:08.137Z,66.00
2018-07-26T21:14:36.736Z,65.90
2018-07-26T21:17:05.573Z,67.30
2018-07-26T21:19:34.012Z,66.40
2018-07-26T21:22:02.486Z,68.50
2018-07-26T21:24:30.892Z,67.80
2018-07-26T21:26:59.313Z,66.80
2018-07-26T21:29:28.419Z,66.50
2018-07-26T21:31:57.018Z,67.00
2018-07-26T21:34:25.595Z,66.80
2018-07-26T21:36:54.050Z,67.40
2018-07-26T21:39:22.475Z,68.00
2018-07-26T21:41:50.861Z,66.40
2018-07-26T21:44:19.366Z,66.90
2018-07-26T21:46:47.777Z,68.10
2018-07-26T21:49:16.200Z,69.00
2018-07-26T21:51:47.528Z,69.30
2018-07-26T21:54:17.069Z,69.70
2018-07-26T21:56:47.372Z,70.20
2018-07-26T21:59:15.799Z,69.40
2018-07-26T22:01:45.133Z,69.90
2018-07-26T22:04:13.582Z,69.70
2018-07-26T22:06:41.989Z,71.00
2018-07-26T22:09:11.393Z,70.50
2018-07-26T22:11:39.981Z,71.10
2018-07-26T22:14:08.861Z,71.30
2018-07-26T22:16:37.269Z,72.10
2018-07-26T22:19:05.704Z,72.30
2018-07-26T22:21:34.166Z,72.60
2018-07-26T22:24:02.577Z,73.60
2018-07-26T22:26:31.271Z,73.40
2018-07-26T22:28:59.716Z,73.90
2018-07-26T22:31:28.177Z,73.40
2018-07-26T22:33:56.728Z,73.80
2018-07-26T22:36:25.135Z,73.70
2018-07-26T22:38:53.562Z,74.30
2018-07-26T22:41:22.182Z,74.80
2018-07-26T22:43:50.617Z,75.20
2018-07-26T22:46:19.058Z,75.40
2018-07-26T22:48:47.524Z,76.20
2018-07-26T22:51:15.937Z,77.10
2018-07-26T22:53:44.370Z,77.30
2018-07-26T22:56:12.836Z,76.30
2018-07-26T22:58:41.268Z,76.40
2018-07-26T23:01:09.689Z,76.90
2018-07-26T23:03:38.117Z,77.50
2018-07-26T23:06:06.532Z,78.20
2018-07-26T23:08:34.940Z,77.30
2018-07-26T23:11:03.398Z,77.50
2018-07-26T23:13:31.804Z,78.10
2018-07-26T23:16:00.216Z,77.90
2018-07-26T23:18:28.678Z,78.10
2018-07-26T23:20:57.091Z,78.10
2018-07-26T23:23:25.526Z,80.40
2018-07-26T23:25:53.980Z,80.30
2018-07-26T23:28:22.393Z,80.00
2018-07-26T23:30:50.816Z,79.80
2018-07-26T23:33:19.262Z,81.10
2018-07-26T23:35:47.693Z,80.80
2018-07-26T23:38:16.118Z,81.10
2018-07-26T23:40:44.535Z,80.60
2018-07-26T23:43:12.962Z,81.60
2018-07-26T23:45:41.372Z,81.40
2018-07-26T23:48:09.907Z,81.40
2018-07-26T23:50:38.330Z,81.60
2018-07-26T23:53:06.748Z,81.70
2018-07-26T23:55:35.217Z,81.90
2018-07-26T23:58:03.629Z,81.70
